Airfield :
LOGIN :

Register | Disclaimer

   EN    FR    IT 

 










Legend :    VFR   Marginal VFR   IFR   Intensive IFR   Very Intensive IFR
Visi :
Ceiling :
>= 8 km
>= 3000ft
5 to 8 km
1000 to 3000 ft
1500m to 5 km
500 to 1000 ft
800 to 1500m
200 to 500 ft
< 800m
< 200 ft
Symbols :   Thunderstorms  Fog  Heavy snow  Heavy precipitations  Wind > 20 kt
SIGMETs :     Misc.  Thunderstorms  Icing  Turbulence  Mountain Waves  Volcanic Ashes






- Airport Elevation : 436 ft
- IATA code : BTS


LZIB - Bratislava

CURRENT METAR :
  • 181000Z 35005KT 310V060 9999 SCT031 BKN037 18/07 Q1026 NOSIG

EXPIRED METARs :
  • 180930Z 05005KT 340V080 9999 BKN029 BKN036 17/06 Q1026 NOSIG
  • 180900Z 04006KT 360V070 9999 SCT029 BKN038 17/06 Q1026 NOSIG
  • 180830Z 04008KT 9999 BKN030 BKN038 16/06 Q1026 NOSIG
  • 180800Z 02009KT 9999 BKN031 BKN038 15/06 Q1026 NOSIG
  • 180730Z 02008KT 9999 FEW031 BKN037 15/05 Q1026 NOSIG

TAF TAF LZIB
Valid from the 18 at 06:00 until the 19 at 06:00 UTC


180500Z 1806/1906 31006KT CAVOK
TEMPO 1806/1808 9999 SCT048
BECMG 1808/1810 05010KT
BECMG 1816/1818 VRB02KT



MET'MAP, your aeronautical weather chart ! - Copyright ORBIFLY December 2007 - Disclaimer

ORBIFLY MET'MAP TEAM :

Programming & Development : Alexandra Zaïnal
Concept & original design : Baudouin d'Aumeries
Assistance for programming : Marc-Olivier Méhu
Technical & hardware support : Manuel Goepfert

Contact : metmap@orbifly.com




SOURCES & CREDITS :

   NOAA